Time;durP1;ratioP1;P1;durP2;ratioP2;P2;SDS_P1;SDS_P2;PMS_P1;PMS_P2;Temp;Humidity;BMP_temperature;BMP_pressure;BME280_temperature;BME280_humidity;BME280_pressure;Samples;Min_cycle;Max_cycle;Signal;HPM_P1;HPM_P2
2022/02/10 00:15:32;;;;;;;6.67;4.13;;;4.00;99.90;;;;;;5073282;28;20262;-58
2022/02/10 00:18:08;;;;;;;7.10;4.33;;;4.00;99.90;;;;;;5072830;28;20231;-58
2022/02/10 00:20:40;;;;;;;6.40;4.50;;;3.90;99.90;;;;;;5072747;28;20620;-58
2022/02/10 00:23:22;;;;;;;8.00;4.50;;;3.90;99.90;;;;;;5073294;28;20216;-58
2022/02/10 00:34:10;;;;;;;6.43;4.47;;;4.00;99.90;;;;;;5073042;28;20296;-58
2022/02/10 00:34:29;;;;;;;7.30;4.40;;;4.00;99.90;;;;;;5072939;28;20679;-58
2022/02/10 00:37:10;;;;;;;9.27;5.07;;;3.90;99.90;;;;;;5072689;28;20209;-57
2022/02/10 00:42:20;;;;;;;6.63;4.20;;;3.90;99.90;;;;;;5061273;28;20250;-59
2022/02/10 00:44:48;;;;;;;5.30;4.10;;;3.80;99.90;;;;;;5072572;28;20209;-57
2022/02/10 00:47:15;;;;;;;7.13;3.90;;;3.80;99.90;;;;;;5072556;28;20212;-59
2022/02/10 00:49:42;;;;;;;6.43;4.47;;;3.70;99.90;;;;;;5072723;28;20232;-58
2022/02/10 00:52:09;;;;;;;7.77;4.93;;;3.60;99.90;;;;;;5072516;28;20262;-58
2022/02/10 00:54:38;;;;;;;9.20;5.17;;;3.60;99.90;;;;;;5072775;28;20201;-57
2022/02/10 00:57:07;;;;;;;9.43;4.50;;;3.60;99.90;;;;;;5072464;28;20209;-58
2022/02/10 00:59:45;;;;;;;8.83;4.70;;;3.60;99.90;;;;;;5072286;28;20720;-58
2022/02/10 01:06:55;;;;;;;5.87;4.20;;;3.70;99.90;;;;;;5072798;28;20209;-57
2022/02/10 01:10:56;;;;;;;6.23;4.07;;;3.60;99.90;;;;;;5072027;28;20627;-59
2022/02/10 01:13:42;;;;;;;6.17;4.40;;;3.70;99.90;;;;;;5072235;28;20213;-58
2022/02/10 01:29:53;;;;;;;9.03;4.03;;;3.60;99.90;;;;;;5072134;28;20228;-58
2022/02/10 01:32:19;;;;;;;9.03;4.63;;;3.60;99.90;;;;;;5072009;28;20204;-58
2022/02/10 01:34:50;;;;;;;5.97;4.13;;;3.60;99.90;;;;;;5071996;28;20211;-58
2022/02/10 01:37:18;;;;;;;6.60;4.20;;;3.60;99.90;;;;;;5072054;28;20232;-58
2022/02/10 01:39:49;;;;;;;6.80;4.20;;;3.60;99.90;;;;;;5071962;28;20235;-59
2022/02/10 02:04:25;;;;;;;5.37;3.70;;;3.50;99.90;;;;;;5075806;28;20615;-58
2022/02/10 02:06:55;;;;;;;6.37;3.97;;;3.50;99.90;;;;;;5075573;28;20209;-58
2022/02/10 02:09:22;;;;;;;6.07;3.70;;;3.50;99.90;;;;;;5075648;28;20662;-58
2022/02/10 02:11:52;;;;;;;9.13;3.83;;;3.40;99.90;;;;;;5075365;28;20300;-59
2022/02/10 02:14:21;;;;;;;5.93;4.23;;;3.40;99.90;;;;;;5075496;28;20751;-58
2022/02/10 02:16:49;;;;;;;6.87;3.53;;;3.40;99.90;;;;;;5075362;28;20595;-57
2022/02/10 02:19:16;;;;;;;7.03;3.60;;;3.40;99.90;;;;;;5075388;28;20229;-58
2022/02/10 02:21:44;;;;;;;5.77;3.57;;;3.40;99.90;;;;;;5075226;28;20212;-59
2022/02/10 02:24:19;;;;;;;5.53;3.50;;;3.40;99.90;;;;;;5075402;28;20208;-59
2022/02/10 02:26:46;;;;;;;5.27;3.70;;;3.50;99.90;;;;;;5075348;28;20211;-59
2022/02/10 02:29:15;;;;;;;5.80;3.63;;;3.40;99.90;;;;;;5075110;28;20247;-59
2022/02/10 02:31:46;;;;;;;5.37;3.20;;;3.40;99.90;;;;;;5075076;28;20205;-56
2022/02/10 02:37:31;;;;;;;4.90;3.70;;;3.30;99.90;;;;;;5059342;28;20351;-58
2022/02/10 03:03:52;;;;;;;5.93;3.93;;;3.40;99.90;;;;;;5074847;28;20719;-57
2022/02/10 03:05:24;;;;;;;5.87;3.20;;;3.50;99.90;;;;;;5074078;28;20208;-63
2022/02/10 03:07:54;;;;;;;6.20;3.27;;;3.50;99.90;;;;;;5074818;28;20205;-60
2022/02/10 03:10:37;;;;;;;4.37;3.30;;;3.50;99.90;;;;;;5074324;28;20257;-62
2022/02/10 03:13:08;;;;;;;5.17;3.27;;;3.40;99.90;;;;;;5074357;28;20604;-60
2022/02/10 03:15:42;;;;;;;6.50;3.13;;;3.30;99.90;;;;;;5074677;28;20248;-62
2022/02/10 03:18:18;;;;;;;3.60;2.93;;;3.30;99.90;;;;;;5074495;28;20311;-61
2022/02/10 03:21:00;;;;;;;6.67;3.63;;;3.20;99.90;;;;;;5074171;28;20271;-62
2022/02/10 04:07:52;;;;;;;6.23;3.50;;;2.70;99.90;;;;;;5044232;28;20243;-62
2022/02/10 04:13:13;;;;;;;5.60;3.37;;;2.70;99.90;;;;;;5073401;28;20204;-61
2022/02/10 04:15:46;;;;;;;6.97;4.00;;;2.70;99.90;;;;;;5072262;28;20208;-61
2022/02/10 04:21:12;;;;;;;7.00;3.93;;;2.70;99.90;;;;;;5072938;28;20204;-61
2022/02/10 04:23:55;;;;;;;5.87;4.10;;;2.70;99.90;;;;;;5073082;28;20205;-61
2022/02/10 04:26:31;;;;;;;6.13;3.50;;;2.70;99.90;;;;;;5073224;28;20212;-61
2022/02/10 04:29:27;;;;;;;7.80;4.07;;;2.60;99.90;;;;;;5072798;28;20223;-60
2022/02/10 04:32:19;;;;;;;5.00;3.37;;;2.70;99.90;;;;;;5072722;28;20593;-61
2022/02/10 04:41:37;;;;;;;5.07;3.93;;;2.80;99.90;;;;;;5072520;28;20223;-61
2022/02/10 04:43:44;;;;;;;5.40;3.50;;;2.70;99.90;;;;;;5072262;28;20204;-61
2022/02/10 04:55:11;;;;;;;5.50;3.73;;;2.70;99.90;;;;;;5072568;28;20262;-61
2022/02/10 04:57:48;;;;;;;6.37;3.53;;;2.70;99.90;;;;;;5072203;28;20226;-61
2022/02/10 05:00:28;;;;;;;4.80;3.40;;;2.80;99.90;;;;;;5072305;28;20267;-62
2022/02/10 05:17:08;;;;;;;8.27;3.33;;;2.90;99.90;;;;;;5072367;28;20203;-61
2022/02/10 05:36:04;;;;;;;7.00;3.50;;;3.00;99.90;;;;;;5071862;28;20204;-62
2022/02/10 05:38:35;;;;;;;5.87;3.27;;;3.10;99.90;;;;;;5071680;28;20225;-61
2022/02/10 05:43:55;;;;;;;5.23;3.37;;;3.20;99.90;;;;;;5071616;28;20212;-61
2022/02/10 05:46:40;;;;;;;4.63;3.30;;;3.30;99.90;;;;;;5072059;28;20208;-62
2022/02/10 05:49:30;;;;;;;6.70;3.13;;;3.30;99.90;;;;;;5071769;28;20255;-62
2022/02/10 05:54:51;;;;;;;5.83;3.40;;;3.40;99.90;;;;;;5071803;28;20204;-62
2022/02/10 05:57:34;;;;;;;9.07;3.97;;;3.40;99.90;;;;;;5071550;28;20236;-61
2022/02/10 06:00:51;;;;;;;6.00;3.30;;;3.40;99.90;;;;;;5071378;28;20253;-61
2022/02/10 06:52:56;;;;;;;5.07;2.40;;;5.70;99.90;;;;;;5063141;28;20204;-62
2022/02/10 06:55:41;;;;;;;4.13;2.67;;;5.80;99.90;;;;;;5074816;28;20216;-61
2022/02/10 07:04:10;;;;;;;6.23;3.33;;;6.00;99.90;;;;;;5065317;28;20200;-62
2022/02/10 07:06:54;;;;;;;2.43;1.87;;;6.10;99.90;;;;;;5074328;28;20205;-62
2022/02/10 07:09:58;;;;;;;4.80;2.47;;;6.20;99.90;;;;;;5074433;28;20221;-62
2022/02/10 07:12:55;;;;;;;4.67;2.70;;;6.30;99.90;;;;;;5074122;28;20218;-61
2022/02/10 07:48:43;;;;;;;7.57;3.53;;;8.10;99.90;;;;;;5073616;28;20200;-62
2022/02/10 07:51:36;;;;;;;5.03;2.60;;;8.10;99.90;;;;;;5073769;28;20201;-62
2022/02/10 07:54:14;;;;;;;5.00;2.67;;;8.20;99.90;;;;;;5073811;28;20212;-62
2022/02/10 07:59:44;;;;;;;5.43;3.00;;;8.20;99.90;;;;;;5072101;28;20556;-62
2022/02/10 08:55:04;;;;;;;4.23;2.37;;;9.90;99.90;;;;;;5072222;28;20243;-60
2022/02/10 08:57:45;;;;;;;9.97;3.13;;;10.10;99.90;;;;;;5072059;28;20580;-60
2022/02/10 09:03:23;;;;;;;7.60;2.63;;;10.40;99.90;;;;;;5088062;28;20207;-54
2022/02/10 09:05:59;;;;;;;5.00;2.53;;;10.40;99.90;;;;;;5092651;28;20589;-55
2022/02/10 09:12:06;;;;;;;7.33;2.63;;;10.60;99.90;;;;;;5092093;28;20231;-54
2022/02/10 09:18:14;;;;;;;6.17;2.77;;;10.80;99.90;;;;;;5092432;28;20207;-54
2022/02/10 09:20:29;;;;;;;7.93;2.90;;;11.00;99.90;;;;;;5091953;28;20239;-53
2022/02/10 09:56:12;;;;;;;9.63;3.00;;;12.50;99.90;;;;;;5091374;28;20203;-56
2022/02/10 10:01:33;;;;;;;7.23;3.40;;;12.70;99.90;;;;;;5076083;28;20241;-54
2022/02/10 10:04:07;;;;;;;6.90;3.50;;;12.80;99.90;;;;;;5092358;28;20250;-56
2022/02/10 10:06:56;;;;;;;7.07;3.30;;;12.80;99.90;;;;;;5092031;28;20298;-54
2022/02/10 10:09:39;;;;;;;6.53;3.60;;;12.90;99.90;;;;;;5091753;28;20625;-55
2022/02/10 10:15:19;;;;;;;4.67;2.80;;;13.10;99.90;;;;;;5094336;28;20301;-55
2022/02/10 10:18:35;;;;;;;6.33;3.20;;;12.90;99.90;;;;;;5095911;28;20668;-55
2022/02/10 10:55:20;;;;;;;9.03;3.40;;;15.00;99.90;;;;;;5095121;28;20199;-56
2022/02/10 10:57:53;;;;;;;7.57;3.40;;;15.10;99.90;;;;;;5095072;28;20305;-57
2022/02/10 11:01:09;;;;;;;7.30;3.80;;;15.10;99.90;;;;;;5094904;28;20267;-56
2022/02/10 11:38:08;;;;;;;8.57;4.43;;;14.50;99.90;;;;;;5094233;28;20271;-57
2022/02/10 11:47:42;;;;;;;6.77;3.80;;;14.00;99.90;;;;;;5094034;28;20211;-57
2022/02/10 13:29:04;;;;;;;8.03;5.13;;;12.20;99.90;;;;;;5093398;28;20213;-57
2022/02/10 13:35:13;;;;;;;7.73;4.70;;;12.40;99.90;;;;;;5092377;28;20206;-55
2022/02/10 14:13:36;;;;;;;10.10;5.43;;;11.60;99.90;;;;;;5055302;28;20208;-60
2022/02/10 14:16:26;;;;;;;10.60;5.43;;;11.50;99.90;;;;;;5089463;28;20200;-61
2022/02/10 14:18:56;;;;;;;6.90;5.10;;;11.40;99.90;;;;;;5098234;28;20222;-60
2022/02/10 14:21:32;;;;;;;9.33;5.23;;;11.40;99.90;;;;;;5098056;28;20204;-58
2022/02/10 14:26:48;;;;;;;9.37;4.87;;;11.40;99.90;;;;;;5098610;28;20198;-57
2022/02/10 14:29:15;;;;;;;7.80;4.90;;;11.20;99.90;;;;;;5098202;28;20208;-57
2022/02/10 14:31:44;;;;;;;11.30;5.47;;;11.20;99.90;;;;;;5097260;28;20204;-59
2022/02/10 14:34:15;;;;;;;8.17;5.40;;;11.10;99.90;;;;;;5098100;28;20258;-56
2022/02/10 14:36:46;;;;;;;9.13;5.30;;;11.00;99.90;;;;;;5097681;28;20208;-57
2022/02/10 15:20:37;;;;;;;10.73;4.90;;;10.50;99.90;;;;;;5074535;28;20691;-55
2022/02/10 15:49:30;;;;;;;8.33;5.47;;;10.50;99.90;;;;;;5074222;28;20743;-57
2022/02/10 15:52:16;;;;;;;8.73;5.33;;;10.50;99.90;;;;;;5074235;28;20213;-57
2022/02/10 15:55:04;;;;;;;10.23;5.30;;;10.50;99.90;;;;;;5074159;28;20287;-57
2022/02/10 16:11:42;;;;;;;10.37;5.90;;;10.30;99.90;;;;;;5072665;28;20243;-57
2022/02/10 16:17:02;;;;;;;10.07;5.90;;;10.20;99.90;;;;;;5046985;28;20203;-58
2022/02/10 16:19:30;;;;;;;8.77;4.80;;;10.10;99.90;;;;;;5073088;28;20237;-58
2022/02/10 16:22:05;;;;;;;7.80;5.50;;;10.10;99.90;;;;;;5072894;28;20668;-58
2022/02/10 16:24:35;;;;;;;12.43;6.33;;;10.00;99.90;;;;;;5073017;28;20244;-58
2022/02/10 16:27:14;;;;;;;9.10;5.33;;;10.00;99.90;;;;;;5072963;28;20699;-57
2022/02/10 16:29:41;;;;;;;8.97;5.20;;;10.10;99.90;;;;;;5072749;28;20220;-58
2022/02/10 16:32:10;;;;;;;10.40;5.20;;;10.10;99.90;;;;;;5072741;28;20200;-58
2022/02/10 16:34:40;;;;;;;8.13;5.50;;;10.10;99.90;;;;;;5072838;28;20673;-58
2022/02/10 16:37:08;;;;;;;9.17;5.20;;;10.20;99.90;;;;;;5072970;28;20205;-57
2022/02/10 16:39:35;;;;;;;9.00;5.87;;;10.20;99.90;;;;;;5072856;28;20236;-57
2022/02/10 16:42:03;;;;;;;8.50;5.80;;;10.10;99.90;;;;;;5072672;28;20216;-57
2022/02/10 16:44:30;;;;;;;8.70;5.57;;;10.20;99.90;;;;;;5072830;28;20209;-57
2022/02/10 16:46:57;;;;;;;9.83;5.83;;;10.20;99.90;;;;;;5072769;28;20684;-58
2022/02/10 16:49:27;;;;;;;8.77;5.13;;;10.20;99.90;;;;;;5072670;28;20618;-58
2022/02/10 16:51:54;;;;;;;9.33;6.23;;;10.20;99.90;;;;;;5072638;28;20221;-58
2022/02/10 16:54:26;;;;;;;10.47;5.90;;;10.30;99.90;;;;;;5072938;28;20262;-57
2022/02/10 16:57:01;;;;;;;12.03;6.60;;;10.40;99.90;;;;;;5072726;28;20205;-57
2022/02/10 16:59:39;;;;;;;12.77;6.27;;;10.40;99.90;;;;;;5072535;28;20200;-58
2022/02/10 17:17:10;;;;;;;6.07;3.77;;;10.40;99.90;;;;;;5072711;28;20200;-58
2022/02/10 17:19:12;;;;;;;5.43;3.87;;;10.30;99.90;;;;;;5072739;28;20589;-58
2022/02/10 17:27:20;;;;;;;6.57;4.60;;;10.40;99.90;;;;;;5073480;28;20200;-58
2022/02/10 17:30:22;;;;;;;7.77;5.07;;;10.50;99.90;;;;;;5073472;28;20319;-59
2022/02/10 17:33:00;;;;;;;11.10;4.80;;;10.50;99.90;;;;;;5073254;28;20734;-58
2022/02/10 17:35:46;;;;;;;5.73;4.17;;;10.60;99.90;;;;;;5072961;28;20421;-58
2022/02/10 17:46:41;;;;;;;10.27;4.97;;;10.50;99.90;;;;;;5015076;28;20202;-59
2022/02/10 17:52:03;;;;;;;9.47;5.30;;;10.50;99.90;;;;;;5071614;28;20200;-58
2022/02/10 17:54:31;;;;;;;7.50;5.17;;;10.50;99.90;;;;;;5072310;28;20188;-58
2022/02/10 17:56:58;;;;;;;13.87;8.70;;;10.50;99.90;;;;;;5071740;28;20292;-60
2022/02/10 17:59:25;;;;;;;7.20;4.70;;;10.50;99.90;;;;;;5071621;28;20215;-58
2022/02/10 18:01:52;;;;;;;7.13;4.40;;;10.50;99.90;;;;;;5071736;28;20231;-59
2022/02/10 18:04:20;;;;;;;5.07;3.80;;;10.50;99.90;;;;;;5071848;28;20204;-58
2022/02/10 18:06:53;;;;;;;8.87;4.10;;;10.50;99.90;;;;;;5071678;28;20208;-58
2022/02/10 18:15:09;;;;;;;9.17;4.57;;;10.40;99.90;;;;;;5071405;28;20208;-59
2022/02/10 18:17:40;;;;;;;6.77;5.17;;;10.40;99.90;;;;;;5071748;28;20300;-58
2022/02/10 18:20:12;;;;;;;10.70;5.87;;;10.40;99.90;;;;;;5071824;28;20708;-59
2022/02/10 18:22:50;;;;;;;8.70;5.17;;;10.30;99.90;;;;;;5071705;28;20209;-58
2022/02/10 18:25:28;;;;;;;9.27;6.33;;;10.40;99.90;;;;;;5071915;28;20235;-61
2022/02/10 18:28:05;;;;;;;10.73;6.53;;;10.40;99.90;;;;;;5068982;28;20472;-61
2022/02/10 18:33:24;;;;;;;7.57;4.07;;;10.50;99.90;;;;;;5071720;28;20228;-61
2022/02/10 18:33:32;;;;;;;8.73;4.10;;;10.50;99.90;;;;;;5070825;28;20279;-60
2022/02/10 19:06:48;;;;;;;6.40;4.10;;;10.10;99.90;;;;;;5074773;28;20667;-61
2022/02/10 19:09:26;;;;;;;14.20;7.00;;;10.00;99.90;;;;;;5074248;28;20213;-61
2022/02/10 19:11:58;;;;;;;4.90;3.10;;;9.90;99.90;;;;;;5075315;28;20255;-59
2022/02/10 19:14:25;;;;;;;3.93;2.63;;;9.90;99.90;;;;;;5074818;28;20205;-59
2022/02/10 19:16:54;;;;;;;5.80;3.10;;;9.80;99.90;;;;;;5074326;28;20212;-59
2022/02/10 19:19:21;;;;;;;5.10;3.23;;;9.80;99.90;;;;;;5074394;28;20296;-59
2022/02/10 19:21:48;;;;;;;5.57;3.10;;;9.70;99.90;;;;;;5074367;28;20731;-58
2022/02/10 19:24:16;;;;;;;5.80;3.37;;;9.70;99.90;;;;;;5074129;28;20637;-57
2022/02/10 19:26:45;;;;;;;6.07;3.50;;;9.70;99.90;;;;;;5074488;28;20303;-57
2022/02/10 19:29:11;;;;;;;8.70;3.10;;;9.70;99.90;;;;;;5074398;28;20209;-57
2022/02/10 19:31:38;;;;;;;4.20;3.30;;;9.60;99.90;;;;;;5074626;28;20221;-56
2022/02/10 19:34:06;;;;;;;4.70;3.30;;;9.50;99.90;;;;;;5074192;28;20244;-56
2022/02/10 19:36:33;;;;;;;7.87;5.63;;;9.50;99.90;;;;;;5073926;28;20596;-56
2022/02/10 19:39:00;;;;;;;5.03;4.10;;;9.50;99.90;;;;;;5073952;28;20672;-56
2022/02/10 19:41:32;;;;;;;5.30;2.97;;;9.50;99.90;;;;;;5073616;28;20685;-56
2022/02/10 19:44:01;;;;;;;7.07;3.10;;;9.40;99.90;;;;;;5073700;28;20204;-57
2022/02/10 19:46:27;;;;;;;3.77;3.13;;;9.40;99.90;;;;;;5073357;28;20208;-56
2022/02/10 19:48:54;;;;;;;5.77;3.07;;;9.40;99.90;;;;;;5073931;28;20212;-56
2022/02/10 19:51:22;;;;;;;5.13;3.10;;;9.30;99.90;;;;;;5073972;28;20221;-57
2022/02/10 19:53:53;;;;;;;13.83;4.63;;;9.20;99.90;;;;;;5073975;28;20291;-57
2022/02/10 19:56:20;;;;;;;5.57;3.20;;;9.20;99.90;;;;;;5074110;28;20200;-56
2022/02/10 19:58:47;;;;;;;4.43;3.43;;;9.20;99.90;;;;;;5073908;28;20295;-56
2022/02/10 20:01:14;;;;;;;4.60;3.40;;;9.20;99.90;;;;;;5073511;28;20236;-57
2022/02/10 20:03:41;;;;;;;4.40;3.50;;;9.20;99.90;;;;;;5073877;28;20292;-62
2022/02/10 20:06:08;;;;;;;5.03;3.47;;;9.30;99.90;;;;;;5074050;28;20258;-57
2022/02/10 20:08:36;;;;;;;4.50;2.60;;;9.30;99.90;;;;;;5073731;28;20299;-57
2022/02/10 20:11:02;;;;;;;5.10;2.90;;;9.30;99.90;;;;;;5073183;28;20709;-57
2022/02/10 20:13:31;;;;;;;6.00;2.90;;;9.40;99.90;;;;;;5073233;28;20216;-56
2022/02/10 20:16:00;;;;;;;3.73;2.70;;;9.50;99.90;;;;;;5073347;28;20599;-57
2022/02/10 20:18:27;;;;;;;3.90;2.67;;;9.50;99.90;;;;;;5073550;28;20209;-57
2022/02/10 20:20:56;;;;;;;4.07;3.00;;;9.50;99.90;;;;;;5073375;28;20688;-57
2022/02/10 20:23:24;;;;;;;5.13;2.57;;;9.50;99.90;;;;;;5073057;28;20216;-56
2022/02/10 20:25:52;;;;;;;5.27;3.20;;;9.40;99.90;;;;;;5073093;28;20212;-57
2022/02/10 20:28:22;;;;;;;8.37;3.73;;;9.40;99.90;;;;;;5073345;28;20255;-57
2022/02/10 20:30:49;;;;;;;5.80;3.50;;;9.40;99.90;;;;;;5073106;28;20743;-57
2022/02/10 20:33:18;;;;;;;6.07;3.10;;;9.30;99.90;;;;;;5073014;28;20254;-57
2022/02/10 20:35:49;;;;;;;5.00;3.00;;;9.30;99.90;;;;;;5073211;28;20200;-57
2022/02/10 20:38:18;;;;;;;3.80;2.87;;;9.40;99.90;;;;;;5073334;28;20212;-57
2022/02/10 20:40:49;;;;;;;5.03;3.30;;;9.40;99.90;;;;;;5072739;28;20284;-57
2022/02/10 20:43:17;;;;;;;4.70;3.70;;;9.40;99.90;;;;;;5072751;28;20205;-57
2022/02/10 20:45:51;;;;;;;6.37;3.90;;;9.40;99.90;;;;;;5072925;28;20209;-57
2022/02/10 20:48:18;;;;;;;5.43;3.30;;;9.40;99.90;;;;;;5072971;28;20212;-57
2022/02/10 20:50:46;;;;;;;5.50;3.67;;;9.40;99.90;;;;;;5072989;28;20228;-57
2022/02/10 20:53:12;;;;;;;6.47;3.40;;;9.50;99.90;;;;;;5072423;28;20215;-57
2022/02/10 20:55:39;;;;;;;5.03;3.37;;;9.60;99.90;;;;;;5072434;28;20212;-57
2022/02/10 20:58:06;;;;;;;4.97;3.33;;;9.60;99.90;;;;;;5072118;28;20212;-57
2022/02/10 21:00:34;;;;;;;3.97;3.33;;;9.60;99.90;;;;;;5088085;22;20233;-58
2022/02/10 21:03:01;;;;;;;8.13;5.57;;;9.70;99.90;;;;;;5052122;28;20205;-58
2022/02/10 21:05:33;;;;;;;5.77;4.17;;;9.70;99.90;;;;;;5052476;28;20216;-58
2022/02/10 21:08:08;;;;;;;5.60;4.17;;;9.70;99.90;;;;;;5052128;28;20304;-58
2022/02/10 21:10:36;;;;;;;5.70;3.50;;;9.80;99.90;;;;;;5052414;28;20229;-58
2022/02/10 21:13:04;;;;;;;4.63;3.50;;;9.70;99.90;;;;;;5052209;28;20209;-59
2022/02/10 21:15:38;;;;;;;5.17;3.40;;;9.60;99.90;;;;;;5052308;28;20208;-58
2022/02/10 21:18:07;;;;;;;6.20;3.83;;;9.60;99.90;;;;;;5052159;28;20208;-58
2022/02/10 21:20:35;;;;;;;3.73;3.07;;;9.60;99.90;;;;;;5051912;28;20231;-58
2022/02/10 21:23:11;;;;;;;6.07;3.30;;;9.60;99.90;;;;;;5051660;28;20209;-58
2022/02/10 21:25:39;;;;;;;10.30;5.80;;;9.60;99.90;;;;;;5052190;28;20205;-58
2022/02/10 21:28:15;;;;;;;5.67;3.47;;;9.70;99.90;;;;;;5052127;28;20225;-58
2022/02/10 21:30:42;;;;;;;4.00;2.70;;;9.70;99.90;;;;;;5052011;28;20315;-58
2022/02/10 21:33:17;;;;;;;5.53;3.30;;;9.80;99.90;;;;;;5051624;28;20209;-58
2022/02/10 21:36:14;;;;;;;3.93;2.67;;;9.80;99.90;;;;;;5052076;28;20288;-59
2022/02/10 21:38:37;;;;;;;3.93;2.90;;;9.90;99.90;;;;;;5051720;28;20211;-59
2022/02/10 21:55:17;;;;;;;6.30;3.37;;;10.00;99.90;;;;;;5028948;28;20197;-60
2022/02/10 21:58:27;;;;;;;5.77;3.70;;;10.00;99.90;;;;;;5051618;28;20206;-57
2022/02/10 22:03:48;;;;;;;6.47;4.17;;;10.00;99.90;;;;;;5051418;28;20208;-57
2022/02/10 22:12:11;;;;;;;6.10;3.73;;;10.00;99.90;;;;;;5055322;28;20224;-58
2022/02/10 22:17:56;;;;;;;7.30;5.83;;;9.90;99.90;;;;;;5055694;28;20580;-58
2022/02/10 22:20:29;;;;;;;7.27;5.90;;;9.90;99.90;;;;;;5055268;28;20229;-58
2022/02/10 22:23:04;;;;;;;7.83;6.10;;;10.00;99.90;;;;;;5054974;28;20701;-58
2022/02/10 22:25:30;;;;;;;8.63;5.77;;;9.90;99.90;;;;;;5055343;28;20237;-58
2022/02/10 22:28:04;;;;;;;12.67;5.93;;;9.80;99.90;;;;;;5055375;28;20712;-58
2022/02/10 22:30:43;;;;;;;7.90;5.47;;;9.70;99.90;;;;;;5055370;28;20225;-58
2022/02/10 22:33:21;;;;;;;6.27;5.03;;;9.60;99.90;;;;;;5055042;28;20232;-58
2022/02/10 22:35:49;;;;;;;7.10;5.27;;;9.60;99.90;;;;;;5055428;28;20557;-58
2022/02/10 22:38:21;;;;;;;7.77;5.53;;;9.60;99.90;;;;;;5055315;28;20568;-58
2022/02/10 22:41:00;;;;;;;6.77;5.67;;;9.60;99.90;;;;;;5055206;28;20237;-58
2022/02/10 22:43:27;;;;;;;8.47;6.27;;;9.60;99.90;;;;;;5055075;28;20325;-58
2022/02/10 22:45:53;;;;;;;7.30;5.73;;;9.50;99.90;;;;;;5055144;28;20209;-58
2022/02/10 22:48:20;;;;;;;8.37;7.03;;;9.40;99.90;;;;;;5055112;28;20606;-58
2022/02/10 22:50:47;;;;;;;10.60;5.30;;;9.50;99.90;;;;;;5055177;28;20225;-58
2022/02/10 22:53:14;;;;;;;6.63;5.43;;;9.50;99.90;;;;;;5054620;28;20202;-59
2022/02/10 22:55:42;;;;;;;7.10;5.27;;;9.40;99.90;;;;;;5054771;28;20669;-58
2022/02/10 22:58:09;;;;;;;6.10;5.13;;;9.40;99.90;;;;;;5054753;28;20477;-58
2022/02/10 23:00:46;;;;;;;7.63;5.67;;;9.50;99.90;;;;;;5054716;28;20278;-59
2022/02/10 23:03:13;;;;;;;7.63;5.77;;;9.60;99.90;;;;;;5054654;28;20221;-58
2022/02/10 23:05:40;;;;;;;9.37;5.00;;;9.70;99.90;;;;;;5054840;28;20216;-59
2022/02/10 23:08:06;;;;;;;7.47;5.57;;;9.70;99.90;;;;;;5054747;28;20210;-58
2022/02/10 23:10:43;;;;;;;7.37;5.37;;;9.70;99.90;;;;;;5054598;28;20226;-58
2022/02/10 23:13:12;;;;;;;7.87;5.87;;;9.60;99.90;;;;;;5054299;28;20201;-58
2022/02/10 23:15:40;;;;;;;8.03;5.30;;;9.60;99.90;;;;;;5054641;28;20696;-58
2022/02/10 23:18:08;;;;;;;10.67;5.57;;;9.70;99.90;;;;;;5054693;28;20213;-58
2022/02/10 23:20:35;;;;;;;8.37;5.83;;;9.70;99.90;;;;;;5054003;28;20229;-58
2022/02/10 23:23:05;;;;;;;7.50;5.53;;;9.70;99.90;;;;;;5053970;28;20226;-58
2022/02/10 23:25:32;;;;;;;7.63;5.50;;;9.70;99.90;;;;;;5054261;28;20205;-58
2022/02/10 23:28:00;;;;;;;10.80;6.23;;;9.70;99.90;;;;;;5054307;28;20233;-58
2022/02/10 23:30:29;;;;;;;8.57;5.73;;;9.70;99.90;;;;;;5054332;28;20229;-58
2022/02/10 23:33:01;;;;;;;8.87;5.47;;;9.70;99.90;;;;;;5053907;28;20205;-58
2022/02/10 23:36:19;;;;;;;6.87;4.93;;;9.60;99.90;;;;;;5054279;28;20271;-58
2022/02/10 23:38:31;;;;;;;7.20;5.40;;;9.60;99.90;;;;;;5053900;28;20707;-58
2022/02/10 23:41:34;;;;;;;7.00;5.00;;;9.40;99.90;;;;;;5054141;28;20556;-58
2022/02/10 23:43:56;;;;;;;8.40;5.23;;;9.30;99.90;;;;;;5053521;28;20711;-58
2022/02/10 23:46:24;;;;;;;7.83;5.60;;;9.30;99.90;;;;;;5053793;28;20688;-58
2022/02/10 23:48:53;;;;;;;7.33;5.10;;;9.30;99.90;;;;;;5053939;28;20202;-58
2022/02/10 23:51:23;;;;;;;19.50;15.50;;;9.30;99.90;;;;;;5053931;28;20225;-58
2022/02/10 23:53:49;;;;;;;7.43;5.70;;;9.40;99.90;;;;;;5053505;28;20205;-58
2022/02/10 23:56:19;;;;;;;6.87;5.50;;;9.50;99.90;;;;;;5053831;28;20205;-58
2022/02/10 23:58:53;;;;;;;7.67;5.30;;;9.50;99.90;;;;;;5053676;28;20646;-58
